sensor_id;sensor_type;location;lat;lon;timestamp;P1;durP1;ratioP1;P2;durP2;ratioP2
64282;SDS011;50497;50.720;-2.084;2022-08-18T00:01:43;14.23;;;6.63;;
64282;SDS011;50497;50.720;-2.084;2022-08-18T00:04:12;14.10;;;6.93;;
64282;SDS011;50497;50.720;-2.084;2022-08-18T00:06:39;14.38;;;6.88;;
64282;SDS011;50497;50.720;-2.084;2022-08-18T00:09:06;15.25;;;6.88;;
64282;SDS011;50497;50.720;-2.084;2022-08-18T00:11:38;14.25;;;6.45;;
64282;SDS011;50497;50.720;-2.084;2022-08-18T00:14:07;17.45;;;7.13;;
64282;SDS011;50497;50.720;-2.084;2022-08-18T00:16:44;17.10;;;6.95;;
64282;SDS011;50497;50.720;-2.084;2022-08-18T00:19:09;15.95;;;7.15;;
64282;SDS011;50497;50.720;-2.084;2022-08-18T00:21:35;15.68;;;6.60;;
64282;SDS011;50497;50.720;-2.084;2022-08-18T00:24:00;15.10;;;6.72;;
64282;SDS011;50497;50.720;-2.084;2022-08-18T00:26:26;15.20;;;6.97;;
64282;SDS011;50497;50.720;-2.084;2022-08-18T00:28:52;17.48;;;7.55;;
64282;SDS011;50497;50.720;-2.084;2022-08-18T00:31:18;16.13;;;6.80;;
64282;SDS011;50497;50.720;-2.084;2022-08-18T00:33:43;14.05;;;6.55;;
64282;SDS011;50497;50.720;-2.084;2022-08-18T00:36:10;13.98;;;6.75;;
64282;SDS011;50497;50.720;-2.084;2022-08-18T00:38:36;14.60;;;6.35;;
64282;SDS011;50497;50.720;-2.084;2022-08-18T00:41:03;14.18;;;6.35;;
64282;SDS011;50497;50.720;-2.084;2022-08-18T00:43:38;13.57;;;6.38;;
64282;SDS011;50497;50.720;-2.084;2022-08-18T00:46:08;14.95;;;6.68;;
64282;SDS011;50497;50.720;-2.084;2022-08-18T00:48:42;15.27;;;6.53;;
64282;SDS011;50497;50.720;-2.084;2022-08-18T00:51:10;15.70;;;6.88;;
64282;SDS011;50497;50.720;-2.084;2022-08-18T00:56:24;14.93;;;6.95;;
64282;SDS011;50497;50.720;-2.084;2022-08-18T01:01:59;15.70;;;6.93;;
64282;SDS011;50497;50.720;-2.084;2022-08-18T01:04:34;15.85;;;7.20;;
64282;SDS011;50497;50.720;-2.084;2022-08-18T01:07:13;13.40;;;6.97;;
64282;SDS011;50497;50.720;-2.084;2022-08-18T01:09:45;17.77;;;6.93;;
64282;SDS011;50497;50.720;-2.084;2022-08-18T01:12:12;15.27;;;7.05;;
64282;SDS011;50497;50.720;-2.084;2022-08-18T01:14:37;12.82;;;6.43;;
64282;SDS011;50497;50.720;-2.084;2022-08-18T01:17:03;13.05;;;6.47;;
64282;SDS011;50497;50.720;-2.084;2022-08-18T01:19:47;15.30;;;6.47;;
64282;SDS011;50497;50.720;-2.084;2022-08-18T01:25:14;17.85;;;6.72;;
64282;SDS011;50497;50.720;-2.084;2022-08-18T01:28:00;17.08;;;7.10;;
64282;SDS011;50497;50.720;-2.084;2022-08-18T01:30:27;15.85;;;6.60;;
64282;SDS011;50497;50.720;-2.084;2022-08-18T01:32:54;13.07;;;6.60;;
64282;SDS011;50497;50.720;-2.084;2022-08-18T01:35:20;16.73;;;6.95;;
64282;SDS011;50497;50.720;-2.084;2022-08-18T01:37:49;19.30;;;7.80;;
64282;SDS011;50497;50.720;-2.084;2022-08-18T01:40:16;16.40;;;8.00;;
64282;SDS011;50497;50.720;-2.084;2022-08-18T01:42:42;12.93;;;6.93;;
64282;SDS011;50497;50.720;-2.084;2022-08-18T01:45:11;17.98;;;7.05;;
64282;SDS011;50497;50.720;-2.084;2022-08-18T01:47:41;16.58;;;7.68;;
64282;SDS011;50497;50.720;-2.084;2022-08-18T01:50:07;14.90;;;6.65;;
64282;SDS011;50497;50.720;-2.084;2022-08-18T01:52:36;18.40;;;7.80;;
64282;SDS011;50497;50.720;-2.084;2022-08-18T01:55:02;18.52;;;7.60;;
64282;SDS011;50497;50.720;-2.084;2022-08-18T01:57:28;16.13;;;7.15;;
64282;SDS011;50497;50.720;-2.084;2022-08-18T02:02:24;15.30;;;6.68;;
64282;SDS011;50497;50.720;-2.084;2022-08-18T02:04:52;14.40;;;6.43;;
64282;SDS011;50497;50.720;-2.084;2022-08-18T02:07:20;18.40;;;6.75;;
64282;SDS011;50497;50.720;-2.084;2022-08-18T02:09:56;15.73;;;7.25;;
64282;SDS011;50497;50.720;-2.084;2022-08-18T02:12:22;14.75;;;6.40;;
64282;SDS011;50497;50.720;-2.084;2022-08-18T02:14:47;15.70;;;7.28;;
64282;SDS011;50497;50.720;-2.084;2022-08-18T02:17:14;14.93;;;6.70;;
64282;SDS011;50497;50.720;-2.084;2022-08-18T02:19:41;15.00;;;6.53;;
64282;SDS011;50497;50.720;-2.084;2022-08-18T02:22:10;15.35;;;6.60;;
64282;SDS011;50497;50.720;-2.084;2022-08-18T02:24:38;15.40;;;6.97;;
64282;SDS011;50497;50.720;-2.084;2022-08-18T02:27:04;19.00;;;7.60;;
64282;SDS011;50497;50.720;-2.084;2022-08-18T02:29:30;15.23;;;6.75;;
64282;SDS011;50497;50.720;-2.084;2022-08-18T02:31:56;15.45;;;7.28;;
64282;SDS011;50497;50.720;-2.084;2022-08-18T02:34:21;17.58;;;7.07;;
64282;SDS011;50497;50.720;-2.084;2022-08-18T02:36:47;18.02;;;7.20;;
64282;SDS011;50497;50.720;-2.084;2022-08-18T02:39:13;13.35;;;7.00;;
64282;SDS011;50497;50.720;-2.084;2022-08-18T02:41:38;15.73;;;7.78;;
64282;SDS011;50497;50.720;-2.084;2022-08-18T02:44:05;15.48;;;7.03;;
64282;SDS011;50497;50.720;-2.084;2022-08-18T02:46:31;16.40;;;7.13;;
64282;SDS011;50497;50.720;-2.084;2022-08-18T02:48:57;16.23;;;6.60;;
64282;SDS011;50497;50.720;-2.084;2022-08-18T02:51:24;15.10;;;6.70;;
64282;SDS011;50497;50.720;-2.084;2022-08-18T02:53:49;14.45;;;6.85;;
64282;SDS011;50497;50.720;-2.084;2022-08-18T02:56:21;14.57;;;6.90;;
64282;SDS011;50497;50.720;-2.084;2022-08-18T02:58:54;13.50;;;6.40;;
64282;SDS011;50497;50.720;-2.084;2022-08-18T03:01:29;15.00;;;6.72;;
64282;SDS011;50497;50.720;-2.084;2022-08-18T03:03:58;13.82;;;6.10;;
64282;SDS011;50497;50.720;-2.084;2022-08-18T03:06:25;15.68;;;6.40;;
64282;SDS011;50497;50.720;-2.084;2022-08-18T03:08:56;18.67;;;7.63;;
64282;SDS011;50497;50.720;-2.084;2022-08-18T03:11:24;15.15;;;7.15;;
64282;SDS011;50497;50.720;-2.084;2022-08-18T03:13:52;19.08;;;7.05;;
64282;SDS011;50497;50.720;-2.084;2022-08-18T03:16:18;15.13;;;6.57;;
64282;SDS011;50497;50.720;-2.084;2022-08-18T03:18:45;15.13;;;7.05;;
64282;SDS011;50497;50.720;-2.084;2022-08-18T03:21:14;14.55;;;6.78;;
64282;SDS011;50497;50.720;-2.084;2022-08-18T03:23:41;17.48;;;6.90;;
64282;SDS011;50497;50.720;-2.084;2022-08-18T03:26:08;17.08;;;7.25;;
64282;SDS011;50497;50.720;-2.084;2022-08-18T03:28:40;16.85;;;7.78;;
64282;SDS011;50497;50.720;-2.084;2022-08-18T03:31:07;17.02;;;7.20;;
64282;SDS011;50497;50.720;-2.084;2022-08-18T03:33:34;16.15;;;6.93;;
64282;SDS011;50497;50.720;-2.084;2022-08-18T03:36:11;17.73;;;7.97;;
64282;SDS011;50497;50.720;-2.084;2022-08-18T03:38:49;17.67;;;7.07;;
64282;SDS011;50497;50.720;-2.084;2022-08-18T03:41:17;18.13;;;7.75;;
64282;SDS011;50497;50.720;-2.084;2022-08-18T03:43:49;17.08;;;7.50;;
64282;SDS011;50497;50.720;-2.084;2022-08-18T03:46:16;18.40;;;7.78;;
64282;SDS011;50497;50.720;-2.084;2022-08-18T03:48:43;21.35;;;7.72;;
64282;SDS011;50497;50.720;-2.084;2022-08-18T03:53:40;18.95;;;7.70;;
64282;SDS011;50497;50.720;-2.084;2022-08-18T03:56:06;18.33;;;8.30;;
64282;SDS011;50497;50.720;-2.084;2022-08-18T03:58:54;18.40;;;7.97;;
64282;SDS011;50497;50.720;-2.084;2022-08-18T04:01:22;21.25;;;8.95;;
64282;SDS011;50497;50.720;-2.084;2022-08-18T04:03:54;22.73;;;8.57;;
64282;SDS011;50497;50.720;-2.084;2022-08-18T04:06:23;19.05;;;8.68;;
64282;SDS011;50497;50.720;-2.084;2022-08-18T04:08:52;20.80;;;8.73;;
64282;SDS011;50497;50.720;-2.084;2022-08-18T04:11:19;20.15;;;8.57;;
64282;SDS011;50497;50.720;-2.084;2022-08-18T04:13:44;15.40;;;7.38;;
64282;SDS011;50497;50.720;-2.084;2022-08-18T04:16:11;19.38;;;7.55;;
64282;SDS011;50497;50.720;-2.084;2022-08-18T04:18:37;16.15;;;7.35;;
64282;SDS011;50497;50.720;-2.084;2022-08-18T04:21:04;16.77;;;7.40;;
64282;SDS011;50497;50.720;-2.084;2022-08-18T04:23:34;18.00;;;7.72;;
64282;SDS011;50497;50.720;-2.084;2022-08-18T04:26:01;18.33;;;8.18;;
64282;SDS011;50497;50.720;-2.084;2022-08-18T04:28:27;17.00;;;8.02;;
64282;SDS011;50497;50.720;-2.084;2022-08-18T04:30:53;16.02;;;8.18;;
64282;SDS011;50497;50.720;-2.084;2022-08-18T04:33:23;21.58;;;8.57;;
64282;SDS011;50497;50.720;-2.084;2022-08-18T04:35:52;18.63;;;8.40;;
64282;SDS011;50497;50.720;-2.084;2022-08-18T04:38:19;18.17;;;8.30;;
64282;SDS011;50497;50.720;-2.084;2022-08-18T04:40:46;16.95;;;7.63;;
64282;SDS011;50497;50.720;-2.084;2022-08-18T04:43:12;21.25;;;8.35;;
64282;SDS011;50497;50.720;-2.084;2022-08-18T04:45:40;19.95;;;7.93;;
64282;SDS011;50497;50.720;-2.084;2022-08-18T04:48:10;21.30;;;8.13;;
64282;SDS011;50497;50.720;-2.084;2022-08-18T04:50:40;17.83;;;7.80;;
64282;SDS011;50497;50.720;-2.084;2022-08-18T04:53:06;18.58;;;7.88;;
64282;SDS011;50497;50.720;-2.084;2022-08-18T04:55:52;19.08;;;8.23;;
64282;SDS011;50497;50.720;-2.084;2022-08-18T04:58:20;19.92;;;8.13;;
64282;SDS011;50497;50.720;-2.084;2022-08-18T05:00:54;17.02;;;7.72;;
64282;SDS011;50497;50.720;-2.084;2022-08-18T05:03:22;18.10;;;8.00;;
64282;SDS011;50497;50.720;-2.084;2022-08-18T05:05:52;20.15;;;8.23;;
64282;SDS011;50497;50.720;-2.084;2022-08-18T05:08:18;17.52;;;7.68;;
64282;SDS011;50497;50.720;-2.084;2022-08-18T05:10:44;17.63;;;8.35;;
64282;SDS011;50497;50.720;-2.084;2022-08-18T05:13:12;19.27;;;8.05;;
64282;SDS011;50497;50.720;-2.084;2022-08-18T05:15:41;17.38;;;8.05;;
64282;SDS011;50497;50.720;-2.084;2022-08-18T05:18:07;18.20;;;7.85;;
64282;SDS011;50497;50.720;-2.084;2022-08-18T05:20:35;16.33;;;7.88;;
64282;SDS011;50497;50.720;-2.084;2022-08-18T05:23:01;17.88;;;7.85;;
64282;SDS011;50497;50.720;-2.084;2022-08-18T05:25:27;20.13;;;8.63;;
64282;SDS011;50497;50.720;-2.084;2022-08-18T05:27:53;19.58;;;8.88;;
64282;SDS011;50497;50.720;-2.084;2022-08-18T05:30:19;20.42;;;8.65;;
64282;SDS011;50497;50.720;-2.084;2022-08-18T05:32:45;24.05;;;9.38;;
64282;SDS011;50497;50.720;-2.084;2022-08-18T05:37:43;21.60;;;8.80;;
64282;SDS011;50497;50.720;-2.084;2022-08-18T05:40:09;23.33;;;9.18;;
64282;SDS011;50497;50.720;-2.084;2022-08-18T05:42:36;21.90;;;9.57;;
64282;SDS011;50497;50.720;-2.084;2022-08-18T05:45:10;19.90;;;9.10;;
64282;SDS011;50497;50.720;-2.084;2022-08-18T05:47:41;20.65;;;9.68;;
64282;SDS011;50497;50.720;-2.084;2022-08-18T05:50:15;21.83;;;10.07;;
64282;SDS011;50497;50.720;-2.084;2022-08-18T05:52:51;21.52;;;9.13;;
64282;SDS011;50497;50.720;-2.084;2022-08-18T05:55:38;22.05;;;9.45;;
64282;SDS011;50497;50.720;-2.084;2022-08-18T05:58:40;22.70;;;9.10;;
64282;SDS011;50497;50.720;-2.084;2022-08-18T06:01:18;20.75;;;8.88;;
64282;SDS011;50497;50.720;-2.084;2022-08-18T06:06:21;21.95;;;8.93;;
64282;SDS011;50497;50.720;-2.084;2022-08-18T06:11:27;16.30;;;8.07;;
64282;SDS011;50497;50.720;-2.084;2022-08-18T06:13:52;16.60;;;7.65;;
64282;SDS011;50497;50.720;-2.084;2022-08-18T06:24:37;16.30;;;7.50;;
64282;SDS011;50497;50.720;-2.084;2022-08-18T06:30:00;17.23;;;7.07;;
64282;SDS011;50497;50.720;-2.084;2022-08-18T06:37:54;19.70;;;8.68;;
64282;SDS011;50497;50.720;-2.084;2022-08-18T06:43:38;16.75;;;7.20;;
64282;SDS011;50497;50.720;-2.084;2022-08-18T06:46:11;14.43;;;6.82;;
64282;SDS011;50497;50.720;-2.084;2022-08-18T06:48:43;15.85;;;7.00;;
64282;SDS011;50497;50.720;-2.084;2022-08-18T06:51:25;19.42;;;8.35;;
64282;SDS011;50497;50.720;-2.084;2022-08-18T06:54:05;19.95;;;8.38;;
64282;SDS011;50497;50.720;-2.084;2022-08-18T06:56:51;19.00;;;8.55;;
64282;SDS011;50497;50.720;-2.084;2022-08-18T07:01:47;21.15;;;8.82;;
64282;SDS011;50497;50.720;-2.084;2022-08-18T07:04:37;18.27;;;8.40;;
64282;SDS011;50497;50.720;-2.084;2022-08-18T07:07:17;20.83;;;8.43;;
64282;SDS011;50497;50.720;-2.084;2022-08-18T07:10:05;22.77;;;9.48;;
64282;SDS011;50497;50.720;-2.084;2022-08-18T07:12:40;20.67;;;8.82;;
64282;SDS011;50497;50.720;-2.084;2022-08-18T07:15:06;20.67;;;8.68;;
64282;SDS011;50497;50.720;-2.084;2022-08-18T07:17:37;21.40;;;9.48;;
64282;SDS011;50497;50.720;-2.084;2022-08-18T07:22:56;18.70;;;8.05;;
64282;SDS011;50497;50.720;-2.084;2022-08-18T07:25:39;20.50;;;8.65;;
64282;SDS011;50497;50.720;-2.084;2022-08-18T07:28:25;18.50;;;8.00;;
64282;SDS011;50497;50.720;-2.084;2022-08-18T07:33:54;18.85;;;8.45;;
64282;SDS011;50497;50.720;-2.084;2022-08-18T07:36:37;21.27;;;9.30;;
64282;SDS011;50497;50.720;-2.084;2022-08-18T07:42:15;24.30;;;10.07;;
64282;SDS011;50497;50.720;-2.084;2022-08-18T07:44:52;22.65;;;9.15;;
64282;SDS011;50497;50.720;-2.084;2022-08-18T07:47:40;21.92;;;9.20;;
64282;SDS011;50497;50.720;-2.084;2022-08-18T07:50:16;23.42;;;9.48;;
64282;SDS011;50497;50.720;-2.084;2022-08-18T07:57:51;24.25;;;10.35;;
64282;SDS011;50497;50.720;-2.084;2022-08-18T08:00:40;30.88;;;10.25;;
64282;SDS011;50497;50.720;-2.084;2022-08-18T08:08:43;22.25;;;8.93;;
64282;SDS011;50497;50.720;-2.084;2022-08-18T08:14:23;23.77;;;9.20;;
64282;SDS011;50497;50.720;-2.084;2022-08-18T08:25:41;16.35;;;8.93;;
64282;SDS011;50497;50.720;-2.084;2022-08-18T08:28:35;20.67;;;8.48;;
64282;SDS011;50497;50.720;-2.084;2022-08-18T08:34:10;20.00;;;7.43;;
64282;SDS011;50497;50.720;-2.084;2022-08-18T08:36:47;14.85;;;7.50;;
64282;SDS011;50497;50.720;-2.084;2022-08-18T08:39:25;15.73;;;7.40;;
64282;SDS011;50497;50.720;-2.084;2022-08-18T08:42:11;13.68;;;6.60;;
64282;SDS011;50497;50.720;-2.084;2022-08-18T08:44:56;13.10;;;6.63;;
64282;SDS011;50497;50.720;-2.084;2022-08-18T08:47:36;15.43;;;7.28;;
64282;SDS011;50497;50.720;-2.084;2022-08-18T08:50:26;13.82;;;6.95;;
64282;SDS011;50497;50.720;-2.084;2022-08-18T08:55:52;12.13;;;6.30;;
64282;SDS011;50497;50.720;-2.084;2022-08-18T09:00:53;13.20;;;6.82;;
64282;SDS011;50497;50.720;-2.084;2022-08-18T09:09:11;11.90;;;6.55;;
64282;SDS011;50497;50.720;-2.084;2022-08-18T09:17:47;12.30;;;5.93;;
64282;SDS011;50497;50.720;-2.084;2022-08-18T09:20:58;11.68;;;5.38;;
64282;SDS011;50497;50.720;-2.084;2022-08-18T09:23:28;11.73;;;5.93;;
64282;SDS011;50497;50.720;-2.084;2022-08-18T09:29:13;10.57;;;5.85;;
64282;SDS011;50497;50.720;-2.084;2022-08-18T09:38:08;10.02;;;5.82;;
64282;SDS011;50497;50.720;-2.084;2022-08-18T09:40:58;12.07;;;6.50;;
64282;SDS011;50497;50.720;-2.084;2022-08-18T09:54:29;11.18;;;6.13;;
64282;SDS011;50497;50.720;-2.084;2022-08-18T10:02:10;11.73;;;6.13;;
64282;SDS011;50497;50.720;-2.084;2022-08-18T10:04:41;9.88;;;6.20;;
64282;SDS011;50497;50.720;-2.084;2022-08-18T10:12:38;11.77;;;6.03;;
64282;SDS011;50497;50.720;-2.084;2022-08-18T10:29:08;10.60;;;5.50;;
64282;SDS011;50497;50.720;-2.084;2022-08-18T10:34:57;9.18;;;4.82;;
64282;SDS011;50497;50.720;-2.084;2022-08-18T10:39:59;8.15;;;4.50;;
64282;SDS011;50497;50.720;-2.084;2022-08-18T11:01:29;10.00;;;5.28;;
64282;SDS011;50497;50.720;-2.084;2022-08-18T11:04:25;8.77;;;5.80;;
64282;SDS011;50497;50.720;-2.084;2022-08-18T11:06:56;8.18;;;4.80;;
64282;SDS011;50497;50.720;-2.084;2022-08-18T11:09:44;6.40;;;4.07;;
64282;SDS011;50497;50.720;-2.084;2022-08-18T11:12:14;8.88;;;4.53;;
64282;SDS011;50497;50.720;-2.084;2022-08-18T11:17:47;9.38;;;5.07;;
64282;SDS011;50497;50.720;-2.084;2022-08-18T11:20:34;8.95;;;5.25;;
64282;SDS011;50497;50.720;-2.084;2022-08-18T11:23:10;9.27;;;4.85;;
64282;SDS011;50497;50.720;-2.084;2022-08-18T11:25:38;9.38;;;5.18;;
64282;SDS011;50497;50.720;-2.084;2022-08-18T11:28:20;10.80;;;5.20;;
64282;SDS011;50497;50.720;-2.084;2022-08-18T11:30:49;7.78;;;4.50;;
64282;SDS011;50497;50.720;-2.084;2022-08-18T11:33:20;8.48;;;5.00;;
64282;SDS011;50497;50.720;-2.084;2022-08-18T11:35:52;7.88;;;4.97;;
64282;SDS011;50497;50.720;-2.084;2022-08-18T11:38:22;7.50;;;4.35;;
64282;SDS011;50497;50.720;-2.084;2022-08-18T11:40:49;7.38;;;4.40;;
64282;SDS011;50497;50.720;-2.084;2022-08-18T11:43:23;7.30;;;4.35;;
64282;SDS011;50497;50.720;-2.084;2022-08-18T11:45:58;7.57;;;4.13;;
64282;SDS011;50497;50.720;-2.084;2022-08-18T11:50:58;9.48;;;5.00;;
64282;SDS011;50497;50.720;-2.084;2022-08-18T11:56:28;8.48;;;4.45;;
64282;SDS011;50497;50.720;-2.084;2022-08-18T11:58:56;8.77;;;4.50;;
64282;SDS011;50497;50.720;-2.084;2022-08-18T12:06:47;7.22;;;4.43;;
64282;SDS011;50497;50.720;-2.084;2022-08-18T12:17:38;6.13;;;3.97;;
64282;SDS011;50497;50.720;-2.084;2022-08-18T12:20:06;5.85;;;3.53;;
64282;SDS011;50497;50.720;-2.084;2022-08-18T12:25:10;5.97;;;3.50;;
64282;SDS011;50497;50.720;-2.084;2022-08-18T12:27:41;6.30;;;3.53;;
64282;SDS011;50497;50.720;-2.084;2022-08-18T12:32:49;6.05;;;3.20;;
64282;SDS011;50497;50.720;-2.084;2022-08-18T12:35:14;6.78;;;3.92;;
64282;SDS011;50497;50.720;-2.084;2022-08-18T12:37:41;8.15;;;4.30;;
64282;SDS011;50497;50.720;-2.084;2022-08-18T12:40:08;7.63;;;3.80;;
64282;SDS011;50497;50.720;-2.084;2022-08-18T12:42:38;7.03;;;3.90;;
64282;SDS011;50497;50.720;-2.084;2022-08-18T12:45:06;6.72;;;4.07;;
64282;SDS011;50497;50.720;-2.084;2022-08-18T12:47:32;6.40;;;3.45;;
64282;SDS011;50497;50.720;-2.084;2022-08-18T12:52:33;7.68;;;4.30;;
64282;SDS011;50497;50.720;-2.084;2022-08-18T12:54:59;6.32;;;3.88;;
64282;SDS011;50497;50.720;-2.084;2022-08-18T12:57:28;6.93;;;4.00;;
64282;SDS011;50497;50.720;-2.084;2022-08-18T12:59:54;6.50;;;3.80;;
64282;SDS011;50497;50.720;-2.084;2022-08-18T13:02:20;6.60;;;3.40;;
64282;SDS011;50497;50.720;-2.084;2022-08-18T13:04:46;7.10;;;3.83;;
64282;SDS011;50497;50.720;-2.084;2022-08-18T13:07:12;6.90;;;3.60;;
64282;SDS011;50497;50.720;-2.084;2022-08-18T13:09:40;6.45;;;3.60;;
64282;SDS011;50497;50.720;-2.084;2022-08-18T13:12:07;7.50;;;3.63;;
64282;SDS011;50497;50.720;-2.084;2022-08-18T13:14:34;8.77;;;4.28;;
64282;SDS011;50497;50.720;-2.084;2022-08-18T13:17:00;7.93;;;4.70;;
64282;SDS011;50497;50.720;-2.084;2022-08-18T13:19:27;7.63;;;4.57;;
64282;SDS011;50497;50.720;-2.084;2022-08-18T13:21:56;8.15;;;4.72;;
64282;SDS011;50497;50.720;-2.084;2022-08-18T13:24:23;9.07;;;4.60;;
64282;SDS011;50497;50.720;-2.084;2022-08-18T13:26:48;9.45;;;4.70;;
64282;SDS011;50497;50.720;-2.084;2022-08-18T13:29:14;9.27;;;5.15;;
64282;SDS011;50497;50.720;-2.084;2022-08-18T13:31:41;9.85;;;5.32;;
64282;SDS011;50497;50.720;-2.084;2022-08-18T13:34:08;8.85;;;5.13;;
64282;SDS011;50497;50.720;-2.084;2022-08-18T13:36:34;9.75;;;5.22;;
64282;SDS011;50497;50.720;-2.084;2022-08-18T13:39:10;8.90;;;5.53;;
64282;SDS011;50497;50.720;-2.084;2022-08-18T13:41:45;9.10;;;5.40;;
64282;SDS011;50497;50.720;-2.084;2022-08-18T13:44:14;8.00;;;4.00;;
64282;SDS011;50497;50.720;-2.084;2022-08-18T13:46:42;9.30;;;5.03;;
64282;SDS011;50497;50.720;-2.084;2022-08-18T13:49:13;7.47;;;4.15;;
64282;SDS011;50497;50.720;-2.084;2022-08-18T13:51:48;7.45;;;4.03;;
64282;SDS011;50497;50.720;-2.084;2022-08-18T13:54:22;7.43;;;4.03;;
64282;SDS011;50497;50.720;-2.084;2022-08-18T13:57:03;7.93;;;3.85;;
64282;SDS011;50497;50.720;-2.084;2022-08-18T13:59:29;6.82;;;3.75;;
64282;SDS011;50497;50.720;-2.084;2022-08-18T14:01:59;6.90;;;3.55;;
64282;SDS011;50497;50.720;-2.084;2022-08-18T14:04:27;8.90;;;3.45;;
64282;SDS011;50497;50.720;-2.084;2022-08-18T14:06:53;5.88;;;3.10;;
64282;SDS011;50497;50.720;-2.084;2022-08-18T14:09:19;6.53;;;3.80;;
64282;SDS011;50497;50.720;-2.084;2022-08-18T14:11:45;6.28;;;3.42;;
64282;SDS011;50497;50.720;-2.084;2022-08-18T14:14:12;9.00;;;3.85;;
64282;SDS011;50497;50.720;-2.084;2022-08-18T14:16:42;6.43;;;3.30;;
64282;SDS011;50497;50.720;-2.084;2022-08-18T14:19:08;7.60;;;3.90;;
64282;SDS011;50497;50.720;-2.084;2022-08-18T14:21:52;6.32;;;3.03;;
64282;SDS011;50497;50.720;-2.084;2022-08-18T14:24:40;7.70;;;3.97;;
64282;SDS011;50497;50.720;-2.084;2022-08-18T14:27:36;7.50;;;4.18;;
64282;SDS011;50497;50.720;-2.084;2022-08-18T14:30:04;7.55;;;3.97;;
64282;SDS011;50497;50.720;-2.084;2022-08-18T14:32:39;7.43;;;3.83;;
64282;SDS011;50497;50.720;-2.084;2022-08-18T14:35:06;9.35;;;4.72;;
64282;SDS011;50497;50.720;-2.084;2022-08-18T14:37:34;7.63;;;4.07;;
64282;SDS011;50497;50.720;-2.084;2022-08-18T14:40:04;8.93;;;4.32;;
64282;SDS011;50497;50.720;-2.084;2022-08-18T14:42:31;9.30;;;4.22;;
64282;SDS011;50497;50.720;-2.084;2022-08-18T14:44:57;7.93;;;4.50;;
64282;SDS011;50497;50.720;-2.084;2022-08-18T14:47:23;8.48;;;4.13;;
64282;SDS011;50497;50.720;-2.084;2022-08-18T14:49:53;7.78;;;3.88;;
64282;SDS011;50497;50.720;-2.084;2022-08-18T14:52:21;7.72;;;4.10;;
64282;SDS011;50497;50.720;-2.084;2022-08-18T14:54:47;8.50;;;3.65;;
64282;SDS011;50497;50.720;-2.084;2022-08-18T14:57:14;6.53;;;3.33;;
64282;SDS011;50497;50.720;-2.084;2022-08-18T14:59:39;7.85;;;3.30;;
64282;SDS011;50497;50.720;-2.084;2022-08-18T15:02:06;6.97;;;3.33;;
64282;SDS011;50497;50.720;-2.084;2022-08-18T15:04:34;7.32;;;3.10;;
64282;SDS011;50497;50.720;-2.084;2022-08-18T15:07:01;6.43;;;3.03;;
64282;SDS011;50497;50.720;-2.084;2022-08-18T15:09:27;5.53;;;2.75;;
64282;SDS011;50497;50.720;-2.084;2022-08-18T15:11:56;7.28;;;2.88;;
64282;SDS011;50497;50.720;-2.084;2022-08-18T15:14:24;5.65;;;3.03;;
64282;SDS011;50497;50.720;-2.084;2022-08-18T15:16:50;8.23;;;3.03;;
64282;SDS011;50497;50.720;-2.084;2022-08-18T15:19:16;6.13;;;2.63;;
64282;SDS011;50497;50.720;-2.084;2022-08-18T15:21:42;6.60;;;3.22;;
64282;SDS011;50497;50.720;-2.084;2022-08-18T15:24:30;8.02;;;3.20;;
64282;SDS011;50497;50.720;-2.084;2022-08-18T15:27:22;5.75;;;2.83;;
64282;SDS011;50497;50.720;-2.084;2022-08-18T15:29:47;8.25;;;2.85;;
64282;SDS011;50497;50.720;-2.084;2022-08-18T15:32:13;6.35;;;2.50;;
64282;SDS011;50497;50.720;-2.084;2022-08-18T15:34:39;7.63;;;3.00;;
64282;SDS011;50497;50.720;-2.084;2022-08-18T15:37:07;5.93;;;2.50;;
64282;SDS011;50497;50.720;-2.084;2022-08-18T15:39:33;7.47;;;2.42;;
64282;SDS011;50497;50.720;-2.084;2022-08-18T15:41:58;6.45;;;2.60;;
64282;SDS011;50497;50.720;-2.084;2022-08-18T15:44:24;6.43;;;2.40;;
64282;SDS011;50497;50.720;-2.084;2022-08-18T15:46:49;7.43;;;2.38;;
64282;SDS011;50497;50.720;-2.084;2022-08-18T15:49:17;8.23;;;2.58;;
64282;SDS011;50497;50.720;-2.084;2022-08-18T15:51:43;5.70;;;2.35;;
64282;SDS011;50497;50.720;-2.084;2022-08-18T15:54:09;7.25;;;2.40;;
64282;SDS011;50497;50.720;-2.084;2022-08-18T15:56:37;6.35;;;2.70;;
64282;SDS011;50497;50.720;-2.084;2022-08-18T15:59:03;8.52;;;2.63;;
64282;SDS011;50497;50.720;-2.084;2022-08-18T16:01:34;8.50;;;3.17;;
64282;SDS011;50497;50.720;-2.084;2022-08-18T16:04:01;6.07;;;2.53;;
64282;SDS011;50497;50.720;-2.084;2022-08-18T16:06:31;6.35;;;2.40;;
64282;SDS011;50497;50.720;-2.084;2022-08-18T16:09:02;8.15;;;2.78;;
64282;SDS011;50497;50.720;-2.084;2022-08-18T16:11:28;6.75;;;2.50;;
64282;SDS011;50497;50.720;-2.084;2022-08-18T16:13:55;6.82;;;2.50;;
64282;SDS011;50497;50.720;-2.084;2022-08-18T16:16:23;7.15;;;2.78;;
64282;SDS011;50497;50.720;-2.084;2022-08-18T16:18:49;7.05;;;2.22;;
64282;SDS011;50497;50.720;-2.084;2022-08-18T16:21:18;4.38;;;1.88;;
64282;SDS011;50497;50.720;-2.084;2022-08-18T16:23:47;5.32;;;2.28;;
64282;SDS011;50497;50.720;-2.084;2022-08-18T16:26:15;7.47;;;2.08;;
64282;SDS011;50497;50.720;-2.084;2022-08-18T16:28:43;9.63;;;2.88;;
64282;SDS011;50497;50.720;-2.084;2022-08-18T16:31:11;11.50;;;2.67;;
64282;SDS011;50497;50.720;-2.084;2022-08-18T16:33:40;6.20;;;2.33;;
64282;SDS011;50497;50.720;-2.084;2022-08-18T16:36:07;7.90;;;2.47;;
64282;SDS011;50497;50.720;-2.084;2022-08-18T16:38:35;5.95;;;2.45;;
64282;SDS011;50497;50.720;-2.084;2022-08-18T16:41:03;6.55;;;2.38;;
64282;SDS011;50497;50.720;-2.084;2022-08-18T16:43:36;7.25;;;2.63;;
64282;SDS011;50497;50.720;-2.084;2022-08-18T16:46:02;7.07;;;2.70;;
64282;SDS011;50497;50.720;-2.084;2022-08-18T16:48:33;7.80;;;2.80;;
64282;SDS011;50497;50.720;-2.084;2022-08-18T16:50:59;5.80;;;2.40;;
64282;SDS011;50497;50.720;-2.084;2022-08-18T16:55:50;5.60;;;2.55;;
64282;SDS011;50497;50.720;-2.084;2022-08-18T17:01:00;9.10;;;2.80;;
64282;SDS011;50497;50.720;-2.084;2022-08-18T17:03:44;7.60;;;2.63;;
64282;SDS011;50497;50.720;-2.084;2022-08-18T17:08:55;7.80;;;3.20;;
64282;SDS011;50497;50.720;-2.084;2022-08-18T17:13:47;9.18;;;3.75;;
64282;SDS011;50497;50.720;-2.084;2022-08-18T17:16:14;7.53;;;3.20;;
64282;SDS011;50497;50.720;-2.084;2022-08-18T17:18:42;8.55;;;3.20;;
64282;SDS011;50497;50.720;-2.084;2022-08-18T17:21:10;9.98;;;2.90;;
64282;SDS011;50497;50.720;-2.084;2022-08-18T17:23:38;6.72;;;2.70;;
64282;SDS011;50497;50.720;-2.084;2022-08-18T17:28:41;6.22;;;2.70;;
64282;SDS011;50497;50.720;-2.084;2022-08-18T17:31:08;6.72;;;2.70;;
64282;SDS011;50497;50.720;-2.084;2022-08-18T17:33:36;7.75;;;3.30;;
64282;SDS011;50497;50.720;-2.084;2022-08-18T17:36:04;8.93;;;3.20;;
64282;SDS011;50497;50.720;-2.084;2022-08-18T17:38:36;6.18;;;2.80;;
64282;SDS011;50497;50.720;-2.084;2022-08-18T17:41:15;7.93;;;3.20;;
64282;SDS011;50497;50.720;-2.084;2022-08-18T17:43:42;8.82;;;3.50;;
64282;SDS011;50497;50.720;-2.084;2022-08-18T17:49:10;10.63;;;3.70;;
64282;SDS011;50497;50.720;-2.084;2022-08-18T17:51:42;10.50;;;3.70;;
64282;SDS011;50497;50.720;-2.084;2022-08-18T17:56:48;9.90;;;4.18;;
64282;SDS011;50497;50.720;-2.084;2022-08-18T17:59:28;13.10;;;4.75;;
64282;SDS011;50497;50.720;-2.084;2022-08-18T18:04:51;12.02;;;5.00;;
64282;SDS011;50497;50.720;-2.084;2022-08-18T18:07:37;14.18;;;5.32;;
64282;SDS011;50497;50.720;-2.084;2022-08-18T18:10:08;16.27;;;5.38;;
64282;SDS011;50497;50.720;-2.084;2022-08-18T18:12:46;11.48;;;5.00;;
64282;SDS011;50497;50.720;-2.084;2022-08-18T18:18:44;13.70;;;5.40;;
64282;SDS011;50497;50.720;-2.084;2022-08-18T18:21:24;14.57;;;5.63;;
64282;SDS011;50497;50.720;-2.084;2022-08-18T18:23:54;12.90;;;5.45;;
64282;SDS011;50497;50.720;-2.084;2022-08-18T18:26:42;14.80;;;5.28;;